sensor_id;sensor_type;location;lat;lon;timestamp;P1;durP1;ratioP1;P2;durP2;ratioP2
49556;SDS011;35462;45.048;7.666;2023-09-08T00:09:02;9.43;;;4.95;;
49556;SDS011;35462;45.048;7.666;2023-09-08T00:24:22;8.38;;;5.55;;
49556;SDS011;35462;45.048;7.666;2023-09-08T00:39:42;6.93;;;5.28;;
49556;SDS011;35462;45.048;7.666;2023-09-08T00:55:01;7.30;;;5.18;;
49556;SDS011;35462;45.048;7.666;2023-09-08T01:10:21;7.80;;;4.57;;
49556;SDS011;35462;45.048;7.666;2023-09-08T01:25:41;7.03;;;5.97;;
49556;SDS011;35462;45.048;7.666;2023-09-08T01:41:10;7.22;;;5.32;;
49556;SDS011;35462;45.048;7.666;2023-09-08T01:56:29;6.60;;;4.80;;
49556;SDS011;35462;45.048;7.666;2023-09-08T02:11:49;8.40;;;4.68;;
49556;SDS011;35462;45.048;7.666;2023-09-08T02:27:08;6.68;;;5.30;;
49556;SDS011;35462;45.048;7.666;2023-09-08T02:42:28;6.75;;;5.13;;
49556;SDS011;35462;45.048;7.666;2023-09-08T02:57:49;7.43;;;5.20;;
49556;SDS011;35462;45.048;7.666;2023-09-08T03:13:08;7.85;;;5.53;;
49556;SDS011;35462;45.048;7.666;2023-09-08T03:28:28;11.50;;;5.97;;
49556;SDS011;35462;45.048;7.666;2023-09-08T03:43:47;9.60;;;5.70;;
49556;SDS011;35462;45.048;7.666;2023-09-08T03:59:08;9.32;;;5.45;;
49556;SDS011;35462;45.048;7.666;2023-09-08T04:14:27;8.25;;;5.20;;
49556;SDS011;35462;45.048;7.666;2023-09-08T04:29:49;9.10;;;5.35;;
49556;SDS011;35462;45.048;7.666;2023-09-08T04:45:08;8.48;;;5.90;;
49556;SDS011;35462;45.048;7.666;2023-09-08T05:00:29;11.50;;;8.50;;
49556;SDS011;35462;45.048;7.666;2023-09-08T05:15:49;20.70;;;8.85;;
49556;SDS011;35462;45.048;7.666;2023-09-08T05:31:11;13.88;;;9.73;;
49556;SDS011;35462;45.048;7.666;2023-09-08T05:46:31;22.08;;;9.63;;
49556;SDS011;35462;45.048;7.666;2023-09-08T06:01:50;18.58;;;10.38;;
49556;SDS011;35462;45.048;7.666;2023-09-08T06:17:10;13.07;;;9.02;;
49556;SDS011;35462;45.048;7.666;2023-09-08T06:32:30;10.15;;;7.68;;
49556;SDS011;35462;45.048;7.666;2023-09-08T06:47:49;11.95;;;7.85;;
49556;SDS011;35462;45.048;7.666;2023-09-08T07:03:14;15.27;;;9.88;;
49556;SDS011;35462;45.048;7.666;2023-09-08T07:18:33;12.88;;;9.23;;
49556;SDS011;35462;45.048;7.666;2023-09-08T07:33:55;9.52;;;7.05;;
49556;SDS011;35462;45.048;7.666;2023-09-08T07:49:14;17.90;;;6.45;;
49556;SDS011;35462;45.048;7.666;2023-09-08T08:04:33;8.30;;;5.65;;
49556;SDS011;35462;45.048;7.666;2023-09-08T08:19:54;9.15;;;5.43;;
49556;SDS011;35462;45.048;7.666;2023-09-08T08:35:13;6.43;;;5.45;;
49556;SDS011;35462;45.048;7.666;2023-09-08T08:50:33;7.68;;;6.50;;
49556;SDS011;35462;45.048;7.666;2023-09-08T09:05:54;12.93;;;6.90;;
49556;SDS011;35462;45.048;7.666;2023-09-08T09:21:13;8.10;;;6.38;;
49556;SDS011;35462;45.048;7.666;2023-09-08T09:36:32;10.82;;;6.07;;
49556;SDS011;35462;45.048;7.666;2023-09-08T09:51:53;11.98;;;5.65;;
49556;SDS011;35462;45.048;7.666;2023-09-08T10:07:12;12.30;;;6.55;;
49556;SDS011;35462;45.048;7.666;2023-09-08T10:22:34;9.90;;;6.07;;
49556;SDS011;35462;45.048;7.666;2023-09-08T10:38:20;11.73;;;7.55;;
49556;SDS011;35462;45.048;7.666;2023-09-08T10:53:40;8.60;;;6.43;;
49556;SDS011;35462;45.048;7.666;2023-09-08T11:09:05;7.57;;;5.78;;
49556;SDS011;35462;45.048;7.666;2023-09-08T11:24:29;7.93;;;5.85;;
49556;SDS011;35462;45.048;7.666;2023-09-08T11:39:48;6.65;;;4.70;;
49556;SDS011;35462;45.048;7.666;2023-09-08T11:55:08;12.88;;;5.35;;
49556;SDS011;35462;45.048;7.666;2023-09-08T12:10:28;8.82;;;5.10;;
49556;SDS011;35462;45.048;7.666;2023-09-08T12:25:48;6.40;;;4.72;;
49556;SDS011;35462;45.048;7.666;2023-09-08T12:41:09;11.18;;;4.65;;
49556;SDS011;35462;45.048;7.666;2023-09-08T12:56:31;6.82;;;4.78;;
49556;SDS011;35462;45.048;7.666;2023-09-08T13:11:50;5.90;;;4.78;;
49556;SDS011;35462;45.048;7.666;2023-09-08T13:27:10;5.40;;;4.25;;
49556;SDS011;35462;45.048;7.666;2023-09-08T13:42:30;6.57;;;4.43;;
49556;SDS011;35462;45.048;7.666;2023-09-08T13:57:50;7.15;;;4.82;;
49556;SDS011;35462;45.048;7.666;2023-09-08T14:13:09;6.35;;;4.68;;
49556;SDS011;35462;45.048;7.666;2023-09-08T14:28:29;10.32;;;4.45;;
49556;SDS011;35462;45.048;7.666;2023-09-08T14:43:50;6.82;;;4.50;;
49556;SDS011;35462;45.048;7.666;2023-09-08T14:59:10;7.00;;;4.75;;
49556;SDS011;35462;45.048;7.666;2023-09-08T15:14:29;7.55;;;5.03;;
49556;SDS011;35462;45.048;7.666;2023-09-08T15:29:49;8.93;;;5.43;;
49556;SDS011;35462;45.048;7.666;2023-09-08T15:45:08;5.32;;;4.05;;
49556;SDS011;35462;45.048;7.666;2023-09-08T16:00:29;5.55;;;4.10;;
49556;SDS011;35462;45.048;7.666;2023-09-08T16:15:49;5.50;;;4.15;;
49556;SDS011;35462;45.048;7.666;2023-09-08T16:31:09;7.70;;;4.22;;
49556;SDS011;35462;45.048;7.666;2023-09-08T16:46:28;5.97;;;3.83;;
49556;SDS011;35462;45.048;7.666;2023-09-08T17:01:48;4.50;;;3.55;;
49556;SDS011;35462;45.048;7.666;2023-09-08T17:17:08;4.72;;;3.90;;
49556;SDS011;35462;45.048;7.666;2023-09-08T17:32:28;4.53;;;3.10;;
49556;SDS011;35462;45.048;7.666;2023-09-08T17:47:47;6.70;;;3.30;;
49556;SDS011;35462;45.048;7.666;2023-09-08T18:03:07;6.38;;;3.42;;
49556;SDS011;35462;45.048;7.666;2023-09-08T18:18:27;9.43;;;4.00;;
49556;SDS011;35462;45.048;7.666;2023-09-08T18:33:47;7.10;;;5.18;;
49556;SDS011;35462;45.048;7.666;2023-09-08T18:49:06;7.57;;;3.97;;
49556;SDS011;35462;45.048;7.666;2023-09-08T19:04:25;6.15;;;4.30;;
49556;SDS011;35462;45.048;7.666;2023-09-08T19:19:45;6.88;;;4.50;;
49556;SDS011;35462;45.048;7.666;2023-09-08T19:35:05;6.40;;;3.90;;
49556;SDS011;35462;45.048;7.666;2023-09-08T19:50:26;8.13;;;5.40;;
49556;SDS011;35462;45.048;7.666;2023-09-08T20:05:46;11.80;;;5.88;;
49556;SDS011;35462;45.048;7.666;2023-09-08T20:21:06;13.43;;;5.45;;
49556;SDS011;35462;45.048;7.666;2023-09-08T20:36:25;7.20;;;4.93;;
49556;SDS011;35462;45.048;7.666;2023-09-08T20:51:44;7.75;;;5.57;;
49556;SDS011;35462;45.048;7.666;2023-09-08T21:07:04;6.38;;;5.18;;
49556;SDS011;35462;45.048;7.666;2023-09-08T21:22:23;6.03;;;4.55;;
49556;SDS011;35462;45.048;7.666;2023-09-08T21:37:43;11.40;;;5.82;;
49556;SDS011;35462;45.048;7.666;2023-09-08T21:53:02;12.55;;;6.20;;
49556;SDS011;35462;45.048;7.666;2023-09-08T22:08:22;8.13;;;6.72;;
49556;SDS011;35462;45.048;7.666;2023-09-08T22:23:41;9.00;;;6.30;;
49556;SDS011;35462;45.048;7.666;2023-09-08T22:39:01;8.18;;;6.45;;
49556;SDS011;35462;45.048;7.666;2023-09-08T22:54:21;10.75;;;7.53;;
49556;SDS011;35462;45.048;7.666;2023-09-08T23:09:40;8.82;;;7.20;;
49556;SDS011;35462;45.048;7.666;2023-09-08T23:25:01;9.90;;;6.97;;
49556;SDS011;35462;45.048;7.666;2023-09-08T23:40:24;11.75;;;6.55;;
49556;SDS011;35462;45.048;7.666;2023-09-08T23:55:44;7.50;;;6.00;;
